sensor_id;sensor_type;location;lat;lon;timestamp;P1;durP1;ratioP1;P2;durP2;ratioP2
61572;SDS011;47465;43.094;12.434;2022-12-18T00:01:43;13.25;;;7.20;;
61572;SDS011;47465;43.094;12.434;2022-12-18T00:04:14;13.80;;;7.28;;
61572;SDS011;47465;43.094;12.434;2022-12-18T00:06:43;12.80;;;8.48;;
61572;SDS011;47465;43.094;12.434;2022-12-18T00:09:09;14.32;;;7.50;;
61572;SDS011;47465;43.094;12.434;2022-12-18T00:11:37;13.90;;;7.82;;
61572;SDS011;47465;43.094;12.434;2022-12-18T00:14:03;10.77;;;6.40;;
61572;SDS011;47465;43.094;12.434;2022-12-18T00:16:29;13.82;;;7.05;;
61572;SDS011;47465;43.094;12.434;2022-12-18T00:18:58;12.05;;;7.35;;
61572;SDS011;47465;43.094;12.434;2022-12-18T00:21:25;8.93;;;6.45;;
61572;SDS011;47465;43.094;12.434;2022-12-18T00:23:51;9.98;;;7.43;;
61572;SDS011;47465;43.094;12.434;2022-12-18T00:26:18;11.50;;;7.07;;
61572;SDS011;47465;43.094;12.434;2022-12-18T00:28:47;10.02;;;6.95;;
61572;SDS011;47465;43.094;12.434;2022-12-18T00:31:14;11.02;;;7.03;;
61572;SDS011;47465;43.094;12.434;2022-12-18T00:33:41;10.13;;;6.72;;
61572;SDS011;47465;43.094;12.434;2022-12-18T00:36:09;9.38;;;6.35;;
61572;SDS011;47465;43.094;12.434;2022-12-18T00:38:36;12.05;;;6.85;;
61572;SDS011;47465;43.094;12.434;2022-12-18T00:41:02;12.27;;;6.82;;
61572;SDS011;47465;43.094;12.434;2022-12-18T00:43:29;11.15;;;6.50;;
61572;SDS011;47465;43.094;12.434;2022-12-18T00:45:56;10.50;;;6.75;;
61572;SDS011;47465;43.094;12.434;2022-12-18T00:48:22;9.60;;;6.35;;
61572;SDS011;47465;43.094;12.434;2022-12-18T00:50:50;9.95;;;6.43;;
61572;SDS011;47465;43.094;12.434;2022-12-18T00:53:16;11.40;;;6.38;;
61572;SDS011;47465;43.094;12.434;2022-12-18T00:55:42;10.48;;;6.15;;
61572;SDS011;47465;43.094;12.434;2022-12-18T00:58:09;10.73;;;6.45;;
61572;SDS011;47465;43.094;12.434;2022-12-18T01:00:35;9.90;;;5.97;;
61572;SDS011;47465;43.094;12.434;2022-12-18T01:03:03;10.02;;;6.55;;
61572;SDS011;47465;43.094;12.434;2022-12-18T01:05:29;10.38;;;6.70;;
61572;SDS011;47465;43.094;12.434;2022-12-18T01:07:55;9.18;;;6.22;;
61572;SDS011;47465;43.094;12.434;2022-12-18T01:10:22;10.63;;;6.57;;
61572;SDS011;47465;43.094;12.434;2022-12-18T01:12:48;12.57;;;6.50;;
61572;SDS011;47465;43.094;12.434;2022-12-18T01:15:14;9.70;;;6.82;;
61572;SDS011;47465;43.094;12.434;2022-12-18T01:17:41;10.65;;;6.47;;
61572;SDS011;47465;43.094;12.434;2022-12-18T01:20:09;10.50;;;6.45;;
61572;SDS011;47465;43.094;12.434;2022-12-18T01:22:36;11.48;;;6.70;;
61572;SDS011;47465;43.094;12.434;2022-12-18T01:25:03;10.25;;;6.20;;
61572;SDS011;47465;43.094;12.434;2022-12-18T01:27:30;9.70;;;6.25;;
61572;SDS011;47465;43.094;12.434;2022-12-18T01:29:58;9.10;;;5.60;;
61572;SDS011;47465;43.094;12.434;2022-12-18T01:32:24;9.85;;;6.22;;
61572;SDS011;47465;43.094;12.434;2022-12-18T01:34:50;11.50;;;5.80;;
61572;SDS011;47465;43.094;12.434;2022-12-18T01:37:17;8.93;;;5.55;;
61572;SDS011;47465;43.094;12.434;2022-12-18T01:39:44;8.40;;;5.43;;
61572;SDS011;47465;43.094;12.434;2022-12-18T01:42:10;9.75;;;5.65;;
61572;SDS011;47465;43.094;12.434;2022-12-18T01:47:33;7.97;;;5.10;;
61572;SDS011;47465;43.094;12.434;2022-12-18T01:50:03;10.68;;;5.80;;
61572;SDS011;47465;43.094;12.434;2022-12-18T01:52:33;10.30;;;5.70;;
61572;SDS011;47465;43.094;12.434;2022-12-18T01:57:28;9.55;;;5.28;;
61572;SDS011;47465;43.094;12.434;2022-12-18T01:59:55;9.35;;;5.57;;
61572;SDS011;47465;43.094;12.434;2022-12-18T02:02:26;10.73;;;5.40;;
61572;SDS011;47465;43.094;12.434;2022-12-18T02:04:53;7.78;;;5.20;;
61572;SDS011;47465;43.094;12.434;2022-12-18T02:07:20;8.50;;;5.43;;
61572;SDS011;47465;43.094;12.434;2022-12-18T02:09:58;8.63;;;5.43;;
61572;SDS011;47465;43.094;12.434;2022-12-18T02:12:29;11.50;;;5.60;;
61572;SDS011;47465;43.094;12.434;2022-12-18T02:15:03;9.35;;;5.60;;
61572;SDS011;47465;43.094;12.434;2022-12-18T02:17:35;7.43;;;4.90;;
61572;SDS011;47465;43.094;12.434;2022-12-18T02:20:07;7.10;;;4.97;;
61572;SDS011;47465;43.094;12.434;2022-12-18T02:22:43;8.07;;;5.20;;
61572;SDS011;47465;43.094;12.434;2022-12-18T02:27:56;9.02;;;5.35;;
61572;SDS011;47465;43.094;12.434;2022-12-18T02:30:26;9.50;;;5.05;;
61572;SDS011;47465;43.094;12.434;2022-12-18T02:32:54;8.20;;;5.47;;
61572;SDS011;47465;43.094;12.434;2022-12-18T02:35:23;7.53;;;4.87;;
61572;SDS011;47465;43.094;12.434;2022-12-18T02:40:18;7.25;;;5.20;;
61572;SDS011;47465;43.094;12.434;2022-12-18T02:42:45;6.25;;;4.30;;
61572;SDS011;47465;43.094;12.434;2022-12-18T02:45:12;7.30;;;4.70;;
61572;SDS011;47465;43.094;12.434;2022-12-18T02:47:39;8.43;;;5.47;;
61572;SDS011;47465;43.094;12.434;2022-12-18T02:50:09;7.55;;;4.85;;
61572;SDS011;47465;43.094;12.434;2022-12-18T02:52:45;8.13;;;4.50;;
61572;SDS011;47465;43.094;12.434;2022-12-18T02:55:20;8.25;;;4.55;;
61572;SDS011;47465;43.094;12.434;2022-12-18T02:57:56;9.45;;;5.55;;
61572;SDS011;47465;43.094;12.434;2022-12-18T03:00:30;7.63;;;5.00;;
61572;SDS011;47465;43.094;12.434;2022-12-18T03:03:02;8.98;;;4.85;;
61572;SDS011;47465;43.094;12.434;2022-12-18T03:05:33;8.57;;;5.32;;
61572;SDS011;47465;43.094;12.434;2022-12-18T03:08:05;8.95;;;4.75;;
61572;SDS011;47465;43.094;12.434;2022-12-18T03:10:35;8.68;;;4.63;;
61572;SDS011;47465;43.094;12.434;2022-12-18T03:13:06;9.30;;;4.50;;
61572;SDS011;47465;43.094;12.434;2022-12-18T03:15:39;7.03;;;4.43;;
61572;SDS011;47465;43.094;12.434;2022-12-18T03:18:10;8.90;;;5.03;;
61572;SDS011;47465;43.094;12.434;2022-12-18T03:20:41;7.90;;;4.60;;
61572;SDS011;47465;43.094;12.434;2022-12-18T03:23:10;8.68;;;4.78;;
61572;SDS011;47465;43.094;12.434;2022-12-18T03:28:07;7.03;;;4.22;;
61572;SDS011;47465;43.094;12.434;2022-12-18T03:30:39;7.35;;;4.70;;
61572;SDS011;47465;43.094;12.434;2022-12-18T03:33:07;7.22;;;4.55;;
61572;SDS011;47465;43.094;12.434;2022-12-18T03:35:37;7.63;;;4.53;;
61572;SDS011;47465;43.094;12.434;2022-12-18T03:38:06;6.78;;;4.63;;
61572;SDS011;47465;43.094;12.434;2022-12-18T03:40:35;6.95;;;4.50;;
61572;SDS011;47465;43.094;12.434;2022-12-18T03:43:10;7.40;;;4.35;;
61572;SDS011;47465;43.094;12.434;2022-12-18T03:45:43;9.40;;;5.05;;
61572;SDS011;47465;43.094;12.434;2022-12-18T03:48:17;7.30;;;4.13;;
61572;SDS011;47465;43.094;12.434;2022-12-18T03:50:52;6.28;;;4.18;;
61572;SDS011;47465;43.094;12.434;2022-12-18T03:53:24;6.82;;;3.80;;
61572;SDS011;47465;43.094;12.434;2022-12-18T03:55:56;7.30;;;4.18;;
61572;SDS011;47465;43.094;12.434;2022-12-18T03:58:24;6.85;;;4.40;;
61572;SDS011;47465;43.094;12.434;2022-12-18T04:00:53;6.35;;;4.22;;
61572;SDS011;47465;43.094;12.434;2022-12-18T04:03:22;6.82;;;3.65;;
61572;SDS011;47465;43.094;12.434;2022-12-18T04:05:49;6.70;;;4.07;;
61572;SDS011;47465;43.094;12.434;2022-12-18T04:08:17;7.88;;;4.22;;
61572;SDS011;47465;43.094;12.434;2022-12-18T04:10:44;6.25;;;3.88;;
61572;SDS011;47465;43.094;12.434;2022-12-18T04:13:10;7.80;;;4.05;;
61572;SDS011;47465;43.094;12.434;2022-12-18T04:15:36;9.75;;;4.43;;
61572;SDS011;47465;43.094;12.434;2022-12-18T04:18:04;6.32;;;4.28;;
61572;SDS011;47465;43.094;12.434;2022-12-18T04:20:30;8.10;;;3.78;;
61572;SDS011;47465;43.094;12.434;2022-12-18T04:22:56;6.90;;;4.43;;
61572;SDS011;47465;43.094;12.434;2022-12-18T04:25:22;6.35;;;4.20;;
61572;SDS011;47465;43.094;12.434;2022-12-18T04:27:47;8.63;;;4.38;;
61572;SDS011;47465;43.094;12.434;2022-12-18T04:30:13;6.75;;;3.75;;
61572;SDS011;47465;43.094;12.434;2022-12-18T04:32:39;7.85;;;4.53;;
61572;SDS011;47465;43.094;12.434;2022-12-18T04:35:07;7.25;;;4.38;;
61572;SDS011;47465;43.094;12.434;2022-12-18T04:37:35;8.27;;;5.18;;
61572;SDS011;47465;43.094;12.434;2022-12-18T04:40:01;10.35;;;5.05;;
61572;SDS011;47465;43.094;12.434;2022-12-18T04:42:27;8.32;;;4.45;;
61572;SDS011;47465;43.094;12.434;2022-12-18T04:44:53;9.30;;;4.95;;
61572;SDS011;47465;43.094;12.434;2022-12-18T04:47:18;7.78;;;5.18;;
61572;SDS011;47465;43.094;12.434;2022-12-18T04:49:44;9.00;;;5.40;;
61572;SDS011;47465;43.094;12.434;2022-12-18T04:52:11;8.45;;;5.43;;
61572;SDS011;47465;43.094;12.434;2022-12-18T04:54:37;7.95;;;5.22;;
61572;SDS011;47465;43.094;12.434;2022-12-18T04:57:03;8.90;;;5.47;;
61572;SDS011;47465;43.094;12.434;2022-12-18T04:59:29;7.10;;;4.97;;
61572;SDS011;47465;43.094;12.434;2022-12-18T05:01:55;11.07;;;5.25;;
61572;SDS011;47465;43.094;12.434;2022-12-18T05:04:21;7.68;;;5.28;;
61572;SDS011;47465;43.094;12.434;2022-12-18T05:06:47;10.90;;;4.88;;
61572;SDS011;47465;43.094;12.434;2022-12-18T05:09:14;8.38;;;5.35;;
61572;SDS011;47465;43.094;12.434;2022-12-18T05:11:40;7.13;;;4.47;;
61572;SDS011;47465;43.094;12.434;2022-12-18T05:14:06;7.95;;;5.15;;
61572;SDS011;47465;43.094;12.434;2022-12-18T05:16:31;6.22;;;4.50;;
61572;SDS011;47465;43.094;12.434;2022-12-18T05:18:57;9.05;;;3.95;;
61572;SDS011;47465;43.094;12.434;2022-12-18T05:21:23;6.50;;;3.75;;
61572;SDS011;47465;43.094;12.434;2022-12-18T05:23:49;6.95;;;4.00;;
61572;SDS011;47465;43.094;12.434;2022-12-18T05:26:16;5.55;;;3.80;;
61572;SDS011;47465;43.094;12.434;2022-12-18T05:28:43;5.93;;;3.90;;
61572;SDS011;47465;43.094;12.434;2022-12-18T05:31:09;6.22;;;3.22;;
61572;SDS011;47465;43.094;12.434;2022-12-18T05:33:35;5.38;;;3.50;;
61572;SDS011;47465;43.094;12.434;2022-12-18T05:36:02;5.18;;;3.50;;
61572;SDS011;47465;43.094;12.434;2022-12-18T05:38:30;8.13;;;3.72;;
61572;SDS011;47465;43.094;12.434;2022-12-18T05:40:56;7.38;;;3.42;;
61572;SDS011;47465;43.094;12.434;2022-12-18T05:43:25;5.80;;;3.20;;
61572;SDS011;47465;43.094;12.434;2022-12-18T05:45:52;5.20;;;3.43;;
61572;SDS011;47465;43.094;12.434;2022-12-18T05:48:18;5.75;;;3.42;;
61572;SDS011;47465;43.094;12.434;2022-12-18T05:50:46;5.47;;;3.30;;
61572;SDS011;47465;43.094;12.434;2022-12-18T05:53:14;5.53;;;3.10;;
61572;SDS011;47465;43.094;12.434;2022-12-18T05:55:42;7.43;;;3.40;;
61572;SDS011;47465;43.094;12.434;2022-12-18T05:58:10;5.22;;;3.17;;
61572;SDS011;47465;43.094;12.434;2022-12-18T06:00:39;5.57;;;3.28;;
61572;SDS011;47465;43.094;12.434;2022-12-18T06:03:07;6.10;;;3.60;;
61572;SDS011;47465;43.094;12.434;2022-12-18T06:05:34;5.32;;;3.75;;
61572;SDS011;47465;43.094;12.434;2022-12-18T06:08:00;5.18;;;3.28;;
61572;SDS011;47465;43.094;12.434;2022-12-18T06:10:26;5.45;;;3.30;;
61572;SDS011;47465;43.094;12.434;2022-12-18T06:12:52;5.28;;;3.22;;
61572;SDS011;47465;43.094;12.434;2022-12-18T06:15:17;6.00;;;3.55;;
61572;SDS011;47465;43.094;12.434;2022-12-18T06:17:45;5.53;;;3.30;;
61572;SDS011;47465;43.094;12.434;2022-12-18T06:20:10;6.72;;;3.40;;
61572;SDS011;47465;43.094;12.434;2022-12-18T06:22:36;6.32;;;3.30;;
61572;SDS011;47465;43.094;12.434;2022-12-18T06:25:02;4.88;;;3.20;;
61572;SDS011;47465;43.094;12.434;2022-12-18T06:27:29;5.55;;;3.10;;
61572;SDS011;47465;43.094;12.434;2022-12-18T06:29:54;5.00;;;3.40;;
61572;SDS011;47465;43.094;12.434;2022-12-18T06:32:20;7.05;;;3.08;;
61572;SDS011;47465;43.094;12.434;2022-12-18T06:34:48;5.82;;;3.10;;
61572;SDS011;47465;43.094;12.434;2022-12-18T06:37:13;5.15;;;2.70;;
61572;SDS011;47465;43.094;12.434;2022-12-18T06:39:39;5.35;;;3.22;;
61572;SDS011;47465;43.094;12.434;2022-12-18T06:42:05;5.40;;;3.25;;
61572;SDS011;47465;43.094;12.434;2022-12-18T06:44:31;4.38;;;2.90;;
61572;SDS011;47465;43.094;12.434;2022-12-18T06:46:57;4.22;;;2.85;;
61572;SDS011;47465;43.094;12.434;2022-12-18T06:49:23;5.25;;;3.28;;
61572;SDS011;47465;43.094;12.434;2022-12-18T06:51:50;5.15;;;3.30;;
61572;SDS011;47465;43.094;12.434;2022-12-18T06:54:16;5.75;;;3.30;;
61572;SDS011;47465;43.094;12.434;2022-12-18T06:56:41;6.22;;;3.45;;
61572;SDS011;47465;43.094;12.434;2022-12-18T06:59:07;6.45;;;3.55;;
61572;SDS011;47465;43.094;12.434;2022-12-18T07:01:33;6.13;;;3.28;;
61572;SDS011;47465;43.094;12.434;2022-12-18T07:03:59;5.88;;;3.50;;
61572;SDS011;47465;43.094;12.434;2022-12-18T07:06:25;7.05;;;3.40;;
61572;SDS011;47465;43.094;12.434;2022-12-18T07:08:53;6.00;;;3.42;;
61572;SDS011;47465;43.094;12.434;2022-12-18T07:11:19;5.68;;;3.42;;
61572;SDS011;47465;43.094;12.434;2022-12-18T07:13:45;5.35;;;3.58;;
61572;SDS011;47465;43.094;12.434;2022-12-18T07:16:13;6.18;;;4.00;;
61572;SDS011;47465;43.094;12.434;2022-12-18T07:18:40;5.15;;;3.45;;
61572;SDS011;47465;43.094;12.434;2022-12-18T07:21:06;7.72;;;4.10;;
61572;SDS011;47465;43.094;12.434;2022-12-18T07:23:33;5.78;;;3.92;;
61572;SDS011;47465;43.094;12.434;2022-12-18T07:26:02;6.40;;;3.88;;
61572;SDS011;47465;43.094;12.434;2022-12-18T07:28:29;6.57;;;3.85;;
61572;SDS011;47465;43.094;12.434;2022-12-18T07:30:55;5.93;;;3.70;;
61572;SDS011;47465;43.094;12.434;2022-12-18T07:33:21;7.35;;;4.20;;
61572;SDS011;47465;43.094;12.434;2022-12-18T07:35:47;7.57;;;3.90;;
61572;SDS011;47465;43.094;12.434;2022-12-18T07:38:12;7.72;;;4.10;;
61572;SDS011;47465;43.094;12.434;2022-12-18T07:40:38;7.28;;;4.38;;
61572;SDS011;47465;43.094;12.434;2022-12-18T07:43:06;8.73;;;4.57;;
61572;SDS011;47465;43.094;12.434;2022-12-18T07:45:31;6.05;;;3.97;;
61572;SDS011;47465;43.094;12.434;2022-12-18T07:47:57;6.35;;;3.88;;
61572;SDS011;47465;43.094;12.434;2022-12-18T07:50:23;6.90;;;4.05;;
61572;SDS011;47465;43.094;12.434;2022-12-18T07:52:49;5.68;;;4.20;;
61572;SDS011;47465;43.094;12.434;2022-12-18T07:55:15;7.03;;;3.80;;
61572;SDS011;47465;43.094;12.434;2022-12-18T07:57:40;7.05;;;3.97;;
61572;SDS011;47465;43.094;12.434;2022-12-18T08:00:08;7.25;;;3.67;;
61572;SDS011;47465;43.094;12.434;2022-12-18T08:02:35;8.02;;;4.10;;
61572;SDS011;47465;43.094;12.434;2022-12-18T08:05:01;8.45;;;4.40;;
61572;SDS011;47465;43.094;12.434;2022-12-18T08:07:26;6.70;;;4.00;;
61572;SDS011;47465;43.094;12.434;2022-12-18T08:09:52;7.63;;;4.43;;
61572;SDS011;47465;43.094;12.434;2022-12-18T08:12:18;5.68;;;3.83;;
61572;SDS011;47465;43.094;12.434;2022-12-18T08:14:44;6.05;;;4.10;;
61572;SDS011;47465;43.094;12.434;2022-12-18T08:17:11;5.75;;;3.80;;
61572;SDS011;47465;43.094;12.434;2022-12-18T08:19:37;7.18;;;3.90;;
61572;SDS011;47465;43.094;12.434;2022-12-18T08:22:03;6.18;;;3.30;;
61572;SDS011;47465;43.094;12.434;2022-12-18T08:24:28;5.30;;;3.63;;
61572;SDS011;47465;43.094;12.434;2022-12-18T08:26:54;7.72;;;3.85;;
61572;SDS011;47465;43.094;12.434;2022-12-18T08:29:22;9.75;;;3.90;;
61572;SDS011;47465;43.094;12.434;2022-12-18T08:31:48;6.45;;;3.45;;
61572;SDS011;47465;43.094;12.434;2022-12-18T08:34:15;6.25;;;3.70;;
61572;SDS011;47465;43.094;12.434;2022-12-18T08:36:41;6.32;;;4.15;;
61572;SDS011;47465;43.094;12.434;2022-12-18T08:39:07;6.60;;;4.05;;
61572;SDS011;47465;43.094;12.434;2022-12-18T08:41:33;7.40;;;4.30;;
61572;SDS011;47465;43.094;12.434;2022-12-18T08:43:59;7.15;;;4.35;;
61572;SDS011;47465;43.094;12.434;2022-12-18T08:46:58;6.75;;;4.03;;
61572;SDS011;47465;43.094;12.434;2022-12-18T08:49:24;6.93;;;4.38;;
61572;SDS011;47465;43.094;12.434;2022-12-18T08:51:53;6.13;;;4.32;;
61572;SDS011;47465;43.094;12.434;2022-12-18T08:54:19;6.68;;;4.22;;
61572;SDS011;47465;43.094;12.434;2022-12-18T08:56:45;5.60;;;3.70;;
61572;SDS011;47465;43.094;12.434;2022-12-18T08:59:11;6.03;;;3.90;;
61572;SDS011;47465;43.094;12.434;2022-12-18T09:01:40;6.85;;;4.18;;
61572;SDS011;47465;43.094;12.434;2022-12-18T09:04:07;6.88;;;4.60;;
61572;SDS011;47465;43.094;12.434;2022-12-18T09:06:34;7.97;;;4.25;;
61572;SDS011;47465;43.094;12.434;2022-12-18T09:09:00;6.45;;;4.00;;
61572;SDS011;47465;43.094;12.434;2022-12-18T09:11:26;6.30;;;4.07;;
61572;SDS011;47465;43.094;12.434;2022-12-18T09:13:53;6.72;;;4.57;;
61572;SDS011;47465;43.094;12.434;2022-12-18T09:16:20;5.80;;;4.35;;
61572;SDS011;47465;43.094;12.434;2022-12-18T09:18:47;6.07;;;3.90;;
61572;SDS011;47465;43.094;12.434;2022-12-18T09:21:15;6.15;;;4.03;;
61572;SDS011;47465;43.094;12.434;2022-12-18T09:23:42;7.47;;;3.90;;
61572;SDS011;47465;43.094;12.434;2022-12-18T09:26:08;7.35;;;4.03;;
61572;SDS011;47465;43.094;12.434;2022-12-18T09:28:34;7.22;;;4.10;;
61572;SDS011;47465;43.094;12.434;2022-12-18T09:31:03;6.30;;;4.10;;
61572;SDS011;47465;43.094;12.434;2022-12-18T09:33:31;6.47;;;4.10;;
61572;SDS011;47465;43.094;12.434;2022-12-18T09:35:56;7.38;;;4.18;;
61572;SDS011;47465;43.094;12.434;2022-12-18T09:38:24;5.70;;;3.67;;
61572;SDS011;47465;43.094;12.434;2022-12-18T09:40:51;5.55;;;3.78;;
61572;SDS011;47465;43.094;12.434;2022-12-18T09:43:19;7.13;;;4.20;;
61572;SDS011;47465;43.094;12.434;2022-12-18T09:45:51;5.10;;;3.78;;
61572;SDS011;47465;43.094;12.434;2022-12-18T09:48:21;6.32;;;3.50;;
61572;SDS011;47465;43.094;12.434;2022-12-18T09:51:02;5.93;;;3.60;;
61572;SDS011;47465;43.094;12.434;2022-12-18T09:53:36;6.43;;;3.60;;
61572;SDS011;47465;43.094;12.434;2022-12-18T09:56:04;6.50;;;3.88;;
61572;SDS011;47465;43.094;12.434;2022-12-18T09:58:31;7.18;;;3.20;;
61572;SDS011;47465;43.094;12.434;2022-12-18T10:01:06;6.80;;;3.30;;
61572;SDS011;47465;43.094;12.434;2022-12-18T10:03:35;5.05;;;3.38;;
61572;SDS011;47465;43.094;12.434;2022-12-18T10:06:02;6.28;;;3.70;;
61572;SDS011;47465;43.094;12.434;2022-12-18T10:08:39;5.15;;;3.30;;
61572;SDS011;47465;43.094;12.434;2022-12-18T10:14:09;6.80;;;4.07;;
61572;SDS011;47465;43.094;12.434;2022-12-18T10:16:47;7.63;;;3.88;;
61572;SDS011;47465;43.094;12.434;2022-12-18T10:19:26;6.93;;;3.90;;
61572;SDS011;47465;43.094;12.434;2022-12-18T10:22:03;6.20;;;3.90;;
61572;SDS011;47465;43.094;12.434;2022-12-18T10:24:44;6.57;;;3.58;;
61572;SDS011;47465;43.094;12.434;2022-12-18T10:27:16;5.85;;;3.38;;
61572;SDS011;47465;43.094;12.434;2022-12-18T10:29:47;5.78;;;3.50;;
61572;SDS011;47465;43.094;12.434;2022-12-18T10:32:14;5.85;;;3.83;;
61572;SDS011;47465;43.094;12.434;2022-12-18T10:34:44;6.20;;;3.40;;
61572;SDS011;47465;43.094;12.434;2022-12-18T10:37:12;5.40;;;3.20;;
61572;SDS011;47465;43.094;12.434;2022-12-18T10:39:41;5.72;;;3.60;;
61572;SDS011;47465;43.094;12.434;2022-12-18T10:42:11;5.80;;;3.42;;
61572;SDS011;47465;43.094;12.434;2022-12-18T10:44:42;5.57;;;3.20;;
61572;SDS011;47465;43.094;12.434;2022-12-18T10:47:11;5.75;;;3.50;;
61572;SDS011;47465;43.094;12.434;2022-12-18T10:49:42;5.82;;;3.30;;
61572;SDS011;47465;43.094;12.434;2022-12-18T10:52:15;5.70;;;3.55;;
61572;SDS011;47465;43.094;12.434;2022-12-18T10:54:46;5.50;;;3.50;;
61572;SDS011;47465;43.094;12.434;2022-12-18T10:57:16;8.10;;;3.70;;
61572;SDS011;47465;43.094;12.434;2022-12-18T10:59:56;4.85;;;3.60;;
61572;SDS011;47465;43.094;12.434;2022-12-18T11:02:27;5.57;;;3.70;;
61572;SDS011;47465;43.094;12.434;2022-12-18T11:04:58;4.47;;;3.08;;
61572;SDS011;47465;43.094;12.434;2022-12-18T11:07:24;5.35;;;3.20;;
61572;SDS011;47465;43.094;12.434;2022-12-18T11:09:59;6.68;;;3.25;;
61572;SDS011;47465;43.094;12.434;2022-12-18T11:12:27;6.25;;;3.53;;
61572;SDS011;47465;43.094;12.434;2022-12-18T11:14:54;11.73;;;3.20;;
61572;SDS011;47465;43.094;12.434;2022-12-18T11:17:24;5.47;;;3.40;;
61572;SDS011;47465;43.094;12.434;2022-12-18T11:19:54;5.57;;;3.30;;
61572;SDS011;47465;43.094;12.434;2022-12-18T11:22:23;5.00;;;3.00;;
61572;SDS011;47465;43.094;12.434;2022-12-18T11:24:53;5.03;;;3.30;;
61572;SDS011;47465;43.094;12.434;2022-12-18T11:27:21;5.53;;;3.50;;
61572;SDS011;47465;43.094;12.434;2022-12-18T11:29:49;5.25;;;3.60;;
61572;SDS011;47465;43.094;12.434;2022-12-18T11:32:23;5.32;;;3.53;;
61572;SDS011;47465;43.094;12.434;2022-12-18T11:34:59;5.55;;;3.30;;
61572;SDS011;47465;43.094;12.434;2022-12-18T11:37:29;5.30;;;3.92;;
61572;SDS011;47465;43.094;12.434;2022-12-18T11:39:59;6.35;;;3.60;;
61572;SDS011;47465;43.094;12.434;2022-12-18T11:42:30;7.15;;;3.55;;
61572;SDS011;47465;43.094;12.434;2022-12-18T11:50:21;4.72;;;3.05;;
61572;SDS011;47465;43.094;12.434;2022-12-18T11:52:50;6.55;;;3.53;;
61572;SDS011;47465;43.094;12.434;2022-12-18T11:55:31;5.32;;;3.28;;
61572;SDS011;47465;43.094;12.434;2022-12-18T11:58:07;5.70;;;3.30;;
61572;SDS011;47465;43.094;12.434;2022-12-18T12:00:43;5.22;;;3.42;;
61572;SDS011;47465;43.094;12.434;2022-12-18T12:06:09;5.00;;;3.30;;
61572;SDS011;47465;43.094;12.434;2022-12-18T12:08:46;5.88;;;3.35;;
61572;SDS011;47465;43.094;12.434;2022-12-18T12:11:30;5.45;;;3.30;;
61572;SDS011;47465;43.094;12.434;2022-12-18T12:14:07;5.60;;;3.13;;
61572;SDS011;47465;43.094;12.434;2022-12-18T12:16:48;5.95;;;3.33;;
61572;SDS011;47465;43.094;12.434;2022-12-18T12:19:26;4.88;;;3.08;;
61572;SDS011;47465;43.094;12.434;2022-12-18T12:22:03;5.10;;;3.35;;
61572;SDS011;47465;43.094;12.434;2022-12-18T12:24:38;9.40;;;5.70;;
61572;SDS011;47465;43.094;12.434;2022-12-18T12:27:14;5.72;;;3.05;;
61572;SDS011;47465;43.094;12.434;2022-12-18T12:29:50;6.40;;;3.15;;
61572;SDS011;47465;43.094;12.434;2022-12-18T12:32:30;8.63;;;5.18;;
61572;SDS011;47465;43.094;12.434;2022-12-18T12:35:13;4.80;;;2.90;;
61572;SDS011;47465;43.094;12.434;2022-12-18T12:37:52;7.13;;;3.05;;
61572;SDS011;47465;43.094;12.434;2022-12-18T12:40:26;5.88;;;3.40;;
61572;SDS011;47465;43.094;12.434;2022-12-18T12:42:57;7.15;;;3.35;;
61572;SDS011;47465;43.094;12.434;2022-12-18T12:46:03;5.38;;;3.10;;
61572;SDS011;47465;43.094;12.434;2022-12-18T12:48:40;4.18;;;2.92;;
61572;SDS011;47465;43.094;12.434;2022-12-18T12:51:11;4.93;;;3.00;;
61572;SDS011;47465;43.094;12.434;2022-12-18T12:53:41;5.40;;;3.17;;
61572;SDS011;47465;43.094;12.434;2022-12-18T12:56:08;4.53;;;2.70;;
61572;SDS011;47465;43.094;12.434;2022-12-18T13:01:12;4.13;;;2.63;;
61572;SDS011;47465;43.094;12.434;2022-12-18T13:03:52;5.88;;;3.00;;
61572;SDS011;47465;43.094;12.434;2022-12-18T13:06:27;4.65;;;2.90;;
61572;SDS011;47465;43.094;12.434;2022-12-18T13:09:01;6.10;;;2.80;;
61572;SDS011;47465;43.094;12.434;2022-12-18T13:11:30;5.40;;;3.38;;
61572;SDS011;47465;43.094;12.434;2022-12-18T13:14:36;4.75;;;2.80;;
61572;SDS011;47465;43.094;12.434;2022-12-18T13:17:16;4.93;;;3.22;;
61572;SDS011;47465;43.094;12.434;2022-12-18T13:22:36;4.47;;;2.75;;
61572;SDS011;47465;43.094;12.434;2022-12-18T13:28:09;5.43;;;2.88;;
61572;SDS011;47465;43.094;12.434;2022-12-18T13:30:43;4.82;;;2.95;;
61572;SDS011;47465;43.094;12.434;2022-12-18T13:36:09;5.45;;;3.00;;
61572;SDS011;47465;43.094;12.434;2022-12-18T13:38:39;4.68;;;2.63;;
61572;SDS011;47465;43.094;12.434;2022-12-18T13:41:20;8.02;;;3.13;;
61572;SDS011;47465;43.094;12.434;2022-12-18T13:43:49;4.43;;;2.92;;
61572;SDS011;47465;43.094;12.434;2022-12-18T13:46:19;4.80;;;2.80;;
61572;SDS011;47465;43.094;12.434;2022-12-18T13:48:57;5.85;;;3.15;;
61572;SDS011;47465;43.094;12.434;2022-12-18T13:51:27;5.45;;;2.95;;
61572;SDS011;47465;43.094;12.434;2022-12-18T13:53:57;4.45;;;2.90;;
61572;SDS011;47465;43.094;12.434;2022-12-18T13:56:26;5.95;;;3.60;;
61572;SDS011;47465;43.094;12.434;2022-12-18T14:01:53;6.10;;;2.90;;
61572;SDS011;47465;43.094;12.434;2022-12-18T14:04:22;4.63;;;2.95;;
61572;SDS011;47465;43.094;12.434;2022-12-18T14:06:51;4.88;;;3.10;;
61572;SDS011;47465;43.094;12.434;2022-12-18T14:09:21;4.68;;;3.17;;
61572;SDS011;47465;43.094;12.434;2022-12-18T14:11:52;4.60;;;3.10;;
61572;SDS011;47465;43.094;12.434;2022-12-18T14:14:40;4.20;;;2.97;;
61572;SDS011;47465;43.094;12.434;2022-12-18T14:17:09;6.43;;;3.60;;
61572;SDS011;47465;43.094;12.434;2022-12-18T14:22:02;4.53;;;3.10;;
61572;SDS011;47465;43.094;12.434;2022-12-18T14:24:28;4.95;;;3.05;;
61572;SDS011;47465;43.094;12.434;2022-12-18T14:26:57;5.28;;;3.20;;
61572;SDS011;47465;43.094;12.434;2022-12-18T14:29:45;6.22;;;3.00;;
61572;SDS011;47465;43.094;12.434;2022-12-18T14:32:13;5.80;;;3.03;;
61572;SDS011;47465;43.094;12.434;2022-12-18T14:34:42;7.18;;;3.28;;
61572;SDS011;47465;43.094;12.434;2022-12-18T14:37:09;4.50;;;2.80;;
61572;SDS011;47465;43.094;12.434;2022-12-18T14:39:36;5.22;;;2.70;;
61572;SDS011;47465;43.094;12.434;2022-12-18T14:42:02;4.30;;;2.80;;
61572;SDS011;47465;43.094;12.434;2022-12-18T14:44:28;5.57;;;3.05;;
61572;SDS011;47465;43.094;12.434;2022-12-18T14:46:54;5.70;;;2.92;;
61572;SDS011;47465;43.094;12.434;2022-12-18T14:49:24;4.32;;;3.08;;
61572;SDS011;47465;43.094;12.434;2022-12-18T14:51:52;5.88;;;3.00;;
61572;SDS011;47465;43.094;12.434;2022-12-18T14:54:20;8.00;;;3.90;;
61572;SDS011;47465;43.094;12.434;2022-12-18T14:56:47;5.88;;;3.70;;
61572;SDS011;47465;43.094;12.434;2022-12-18T14:59:17;6.78;;;3.58;;
61572;SDS011;47465;43.094;12.434;2022-12-18T15:01:47;5.45;;;3.63;;
61572;SDS011;47465;43.094;12.434;2022-12-18T15:04:25;11.43;;;4.68;;
61572;SDS011;47465;43.094;12.434;2022-12-18T15:09:28;6.72;;;4.47;;
61572;SDS011;47465;43.094;12.434;2022-12-18T15:11:55;7.00;;;4.20;;
61572;SDS011;47465;43.094;12.434;2022-12-18T15:14:23;5.68;;;3.60;;
61572;SDS011;47465;43.094;12.434;2022-12-18T15:16:57;8.20;;;3.67;;
61572;SDS011;47465;43.094;12.434;2022-12-18T15:19:26;5.07;;;3.83;;
61572;SDS011;47465;43.094;12.434;2022-12-18T15:21:58;6.22;;;3.60;;
61572;SDS011;47465;43.094;12.434;2022-12-18T15:24:26;5.22;;;3.50;;
61572;SDS011;47465;43.094;12.434;2022-12-18T15:26:55;4.70;;;3.40;;
61572;SDS011;47465;43.094;12.434;2022-12-18T15:29:21;7.13;;;4.15;;